createdAt,value
2022-08-10T00:00:49.080Z,17.75
2022-08-10T00:01:46.973Z,17.71
2022-08-10T00:02:46.941Z,17.69
2022-08-10T00:03:46.971Z,17.67
2022-08-10T00:04:46.930Z,17.67
2022-08-10T00:05:53.224Z,17.65
2022-08-10T00:06:47.891Z,17.65
2022-08-10T00:07:46.958Z,17.65
2022-08-10T00:08:46.869Z,17.66
2022-08-10T00:09:50.806Z,17.64
2022-08-10T00:10:46.864Z,17.63
2022-08-10T00:11:47.031Z,17.61
2022-08-10T00:12:54.513Z,17.58
2022-08-10T00:13:47.794Z,17.55
2022-08-10T00:14:46.923Z,17.53
2022-08-10T00:15:53.724Z,17.50
2022-08-10T00:16:47.772Z,17.48
2022-08-10T00:17:46.843Z,17.46
2022-08-10T00:18:46.733Z,17.45
2022-08-10T00:20:04.205Z,17.43
2022-08-10T00:20:47.703Z,17.41
2022-08-10T00:21:46.762Z,17.39
2022-08-10T00:22:52.953Z,17.38
2022-08-10T00:23:47.666Z,17.37
2022-08-10T00:24:46.714Z,17.36
2022-08-10T00:25:46.641Z,17.35
2022-08-10T00:28:01.718Z,17.34
2022-08-10T00:28:02.825Z,17.32
2022-08-10T00:28:47.584Z,17.29
2022-08-10T00:29:48.854Z,17.26
2022-08-10T00:30:46.572Z,17.24
2022-08-10T00:31:58.260Z,17.24
2022-08-10T00:32:47.544Z,17.23
2022-08-10T00:33:46.637Z,17.20
2022-08-10T00:34:46.516Z,17.19
2022-08-10T00:35:46.655Z,17.17
2022-08-10T00:36:46.485Z,17.16
2022-08-10T00:37:56.375Z,17.15
2022-08-10T00:38:47.486Z,17.13
2022-08-10T00:39:46.659Z,17.10
2022-08-10T00:40:46.434Z,17.08
2022-08-10T00:41:46.564Z,17.04
2022-08-10T00:42:47.413Z,17.03
2022-08-10T00:43:46.494Z,17.02
2022-08-10T00:44:46.395Z,17.00
2022-08-10T00:45:59.514Z,16.97
2022-08-10T00:46:47.416Z,16.96
2022-08-10T00:47:46.345Z,16.95
2022-08-10T00:49:07.377Z,16.95
2022-08-10T00:49:46.346Z,16.93
2022-08-10T00:50:46.466Z,16.93
2022-08-10T00:51:48.511Z,16.94
2022-08-10T00:52:47.432Z,16.94
2022-08-10T00:53:46.276Z,16.93
2022-08-10T00:54:46.336Z,16.91
2022-08-10T00:56:38.338Z,16.89
2022-08-10T00:57:18.095Z,16.88
2022-08-10T00:58:08.259Z,16.87
2022-08-10T00:58:46.200Z,16.86
2022-08-10T00:59:58.378Z,16.86
2022-08-10T01:00:47.197Z,16.84
2022-08-10T01:02:08.496Z,16.82
2022-08-10T01:02:47.222Z,16.80
2022-08-10T01:04:57.285Z,16.78
2022-08-10T01:04:59.292Z,16.76
2022-08-10T01:05:51.606Z,16.74
2022-08-10T01:06:46.124Z,16.72
2022-08-10T01:07:46.220Z,16.71
2022-08-10T01:08:46.069Z,16.71
2022-08-10T01:09:56.971Z,16.70
2022-08-10T01:10:47.039Z,16.68
2022-08-10T01:12:40.049Z,16.67
2022-08-10T01:12:47.252Z,16.67
2022-08-10T01:13:48.218Z,16.67
2022-08-10T01:14:45.988Z,16.67
2022-08-10T01:15:48.161Z,16.67
2022-08-10T01:16:45.969Z,16.67
2022-08-10T01:17:49.850Z,16.66
2022-08-10T01:18:45.958Z,16.65
2022-08-10T01:19:47.043Z,16.63
2022-08-10T01:20:45.909Z,16.60
2022-08-10T01:21:53.985Z,16.60
2022-08-10T01:22:46.879Z,16.57
2022-08-10T01:23:46.004Z,16.54
2022-08-10T01:24:45.897Z,16.53
2022-08-10T01:26:11.494Z,16.53
2022-08-10T01:26:46.828Z,16.51
2022-08-10T01:27:45.870Z,16.48
2022-08-10T01:28:45.810Z,16.45
2022-08-10T01:29:48.001Z,16.42
2022-08-10T01:30:45.800Z,16.41
2022-08-10T01:31:45.946Z,16.41
2022-08-10T01:32:45.749Z,16.40
2022-08-10T01:33:58.659Z,16.38
2022-08-10T01:34:46.744Z,16.36
2022-08-10T01:35:45.811Z,16.34
2022-08-10T01:36:45.740Z,16.31
2022-08-10T01:37:51.853Z,16.28
2022-08-10T01:38:46.671Z,16.27
2022-08-10T01:39:45.912Z,16.25
2022-08-10T01:40:45.659Z,16.23
2022-08-10T01:41:46.877Z,16.23
2022-08-10T01:42:45.637Z,16.23
2022-08-10T01:43:47.854Z,16.24
2022-08-10T01:44:45.590Z,16.25
2022-08-10T01:45:46.176Z,16.26
2022-08-10T01:46:45.570Z,16.25
2022-08-10T01:47:45.620Z,16.24
2022-08-10T01:48:45.562Z,16.24
2022-08-10T01:49:45.659Z,16.25
2022-08-10T01:50:57.061Z,16.26
2022-08-10T01:51:46.498Z,16.26
2022-08-10T01:52:45.553Z,16.24
2022-08-10T01:53:45.492Z,16.23
2022-08-10T01:54:47.691Z,16.20
2022-08-10T01:55:45.441Z,16.17
2022-08-10T01:56:45.641Z,16.14
2022-08-10T01:57:45.425Z,16.11
2022-08-10T01:58:45.466Z,16.10
2022-08-10T01:59:58.829Z,16.08
2022-08-10T02:00:46.384Z,16.07
2022-08-10T02:01:45.629Z,16.04
2022-08-10T02:02:45.352Z,16.02
2022-08-10T02:04:05.367Z,15.99
2022-08-10T02:04:47.475Z,15.96
2022-08-10T02:05:45.304Z,15.93
2022-08-10T02:06:46.449Z,15.91
2022-08-10T02:07:45.282Z,15.88
2022-08-10T02:08:45.339Z,15.86
2022-08-10T02:09:45.260Z,15.84
2022-08-10T02:10:46.313Z,15.82
2022-08-10T02:12:06.254Z,15.79
2022-08-10T02:12:46.212Z,15.77
2022-08-10T02:13:45.282Z,15.76
2022-08-10T02:14:45.185Z,15.77
2022-08-10T02:16:01.137Z,15.78
2022-08-10T02:16:46.181Z,15.78
2022-08-10T02:17:59.940Z,15.78
2022-08-10T02:18:46.131Z,15.79
2022-08-10T02:19:45.282Z,15.79
2022-08-10T02:20:45.103Z,15.79
2022-08-10T02:22:36.771Z,15.79
2022-08-10T02:22:46.283Z,15.78
2022-08-10T02:23:45.154Z,15.78
2022-08-10T02:24:46.053Z,15.77
2022-08-10T02:25:45.190Z,15.77
2022-08-10T02:26:45.022Z,15.74
2022-08-10T02:27:47.138Z,15.73
2022-08-10T02:28:44.991Z,15.73
2022-08-10T02:29:49.137Z,15.74
2022-08-10T02:30:44.964Z,15.74
2022-08-10T02:31:46.023Z,15.72
2022-08-10T02:32:52.873Z,15.70
2022-08-10T02:33:57.774Z,15.70
2022-08-10T02:34:45.914Z,15.70
2022-08-10T02:35:54.235Z,15.69
2022-08-10T02:36:45.894Z,15.66
2022-08-10T02:37:45.005Z,15.65
2022-08-10T02:38:59.150Z,15.67
2022-08-10T02:39:45.898Z,15.67
2022-08-10T02:45:00.594Z,15.66
2022-08-10T02:45:12.479Z,15.63
2022-08-10T02:45:19.857Z,15.61
2022-08-10T02:45:23.254Z,15.54
2022-08-10T02:45:23.508Z,15.57
2022-08-10T02:45:45.866Z,15.52
2022-08-10T02:46:44.747Z,15.53
2022-08-10T02:47:51.220Z,15.52
2022-08-10T02:48:45.743Z,15.50
2022-08-10T02:49:44.816Z,15.48
2022-08-10T02:50:44.695Z,15.45
2022-08-10T02:52:06.380Z,15.42
2022-08-10T02:52:45.665Z,15.38
2022-08-10T02:53:55.704Z,15.36
2022-08-10T02:54:45.665Z,15.35
2022-08-10T02:55:45.747Z,15.34
2022-08-10T02:56:44.616Z,15.32
2022-08-10T02:58:17.058Z,15.29
2022-08-10T02:58:45.747Z,15.27
2022-08-10T02:59:44.576Z,15.26
2022-08-10T03:00:44.686Z,15.26
2022-08-10T03:01:44.546Z,15.28
2022-08-10T03:02:44.588Z,15.29
2022-08-10T03:03:44.522Z,15.30
2022-08-10T03:04:55.647Z,15.29
2022-08-10T03:05:45.517Z,15.30
2022-08-10T03:06:44.558Z,15.29
2022-08-10T03:07:45.186Z,15.27
2022-08-10T03:08:46.598Z,15.25
2022-08-10T03:09:44.436Z,15.24
2022-08-10T03:10:44.536Z,15.21
2022-08-10T03:12:35.628Z,15.20
2022-08-10T03:12:45.412Z,15.19
2022-08-10T03:13:44.394Z,15.19
2022-08-10T03:14:45.445Z,15.20
2022-08-10T03:15:44.356Z,15.21
2022-08-10T03:16:44.437Z,15.20
2022-08-10T03:17:57.448Z,15.20
2022-08-10T03:18:45.330Z,15.19
2022-08-10T03:20:37.482Z,15.20
2022-08-10T03:20:45.307Z,15.22
2022-08-10T03:21:44.379Z,15.25
2022-08-10T03:22:44.269Z,15.28
2022-08-10T03:23:44.467Z,15.30
2022-08-10T03:24:44.248Z,15.30
2022-08-10T03:25:53.520Z,15.31
2022-08-10T03:26:45.225Z,15.32
2022-08-10T03:27:44.285Z,15.32
2022-08-10T03:28:44.209Z,15.33
2022-08-10T03:30:30.051Z,15.35
2022-08-10T03:30:45.180Z,15.36
2022-08-10T03:31:44.158Z,15.36
2022-08-10T03:32:44.218Z,15.37
2022-08-10T03:33:44.158Z,15.39
2022-08-10T03:34:44.270Z,15.42
2022-08-10T03:35:44.110Z,15.46
2022-08-10T03:36:45.288Z,15.50
2022-08-10T03:37:44.079Z,15.52
2022-08-10T03:38:44.229Z,15.55
2022-08-10T03:39:44.158Z,15.58
2022-08-10T03:40:46.246Z,15.61
2022-08-10T03:41:47.826Z,15.64
2022-08-10T03:42:45.024Z,15.67
2022-08-10T03:43:44.171Z,15.69
2022-08-10T03:44:48.571Z,15.70
2022-08-10T03:45:54.492Z,15.69
2022-08-10T03:46:44.966Z,15.67
2022-08-10T03:47:46.130Z,15.64
2022-08-10T03:48:49.263Z,15.62
2022-08-10T03:49:44.926Z,15.61
2022-08-10T03:50:50.835Z,15.61
2022-08-10T03:51:44.930Z,15.61
2022-08-10T03:52:46.069Z,15.62
2022-08-10T03:54:05.387Z,15.64
2022-08-10T03:54:44.864Z,15.67
2022-08-10T03:56:30.183Z,15.67
2022-08-10T03:56:44.837Z,15.68
2022-08-10T03:57:49.525Z,15.68
2022-08-10T03:58:44.809Z,15.66
2022-08-10T03:59:44.972Z,15.67
2022-08-10T04:00:43.834Z,15.66
2022-08-10T04:02:43.940Z,15.68
2022-08-10T04:02:48.304Z,15.69
2022-08-10T04:03:43.747Z,15.68
2022-08-10T04:04:43.890Z,15.69
2022-08-10T04:05:43.720Z,15.70
2022-08-10T04:06:43.820Z,15.69
2022-08-10T04:07:43.691Z,15.69
2022-08-10T04:08:43.810Z,15.67
2022-08-10T04:09:55.304Z,15.67
2022-08-10T04:10:44.652Z,15.66
2022-08-10T04:11:44.787Z,15.65
2022-08-10T04:12:43.621Z,15.66
2022-08-10T04:13:43.700Z,15.65
2022-08-10T04:14:50.417Z,15.65
2022-08-10T04:15:44.582Z,15.63
2022-08-10T04:17:57.081Z,15.08
2022-08-10T04:18:53.874Z,15.08
2022-08-10T04:19:53.065Z,15.32
2022-08-10T04:20:52.852Z,15.46
2022-08-10T04:21:53.048Z,15.55
2022-08-10T04:22:52.825Z,15.61
2022-08-10T04:23:53.394Z,15.66
2022-08-10T04:24:52.834Z,15.69
2022-08-10T04:25:52.915Z,15.71
2022-08-10T04:26:52.776Z,15.72
2022-08-10T04:27:52.847Z,15.73
2022-08-10T04:28:52.747Z,15.74
2022-08-10T04:29:52.895Z,15.76
2022-08-10T04:30:52.735Z,15.77
2022-08-10T04:31:52.815Z,15.79
2022-08-10T04:32:52.687Z,15.82
2022-08-10T04:34:13.736Z,15.85
2022-08-10T04:34:52.665Z,15.86
2022-08-10T04:35:52.747Z,15.87
2022-08-10T04:36:52.667Z,15.88
2022-08-10T04:37:52.726Z,15.89
2022-08-10T04:38:52.615Z,15.89
2022-08-10T04:39:53.707Z,15.91
2022-08-10T04:40:52.585Z,15.92
2022-08-10T04:41:52.696Z,15.93
2022-08-10T04:42:52.590Z,15.95
2022-08-10T04:43:53.658Z,15.97
2022-08-10T04:44:52.537Z,16.00
2022-08-10T04:45:54.666Z,16.02
2022-08-10T04:46:58.492Z,16.05
2022-08-10T04:48:00.185Z,16.08
2022-08-10T04:49:01.738Z,16.12
2022-08-10T04:49:54.686Z,16.19
2022-08-10T04:50:53.636Z,16.27
2022-08-10T04:51:52.441Z,16.34
2022-08-10T04:52:53.567Z,16.42
2022-08-10T04:54:05.184Z,16.50
2022-08-10T04:54:53.404Z,16.58
2022-08-10T04:55:52.546Z,16.63
2022-08-10T04:56:52.381Z,16.71
2022-08-10T04:58:13.460Z,16.77
2022-08-10T04:58:52.357Z,16.84
2022-08-10T04:59:52.470Z,16.93
2022-08-10T05:00:52.427Z,17.02
2022-08-10T05:02:22.542Z,17.11
2022-08-10T05:02:53.448Z,17.20
2022-08-10T05:04:37.915Z,17.26
2022-08-10T05:04:53.298Z,17.32
2022-08-10T05:05:52.883Z,17.39
2022-08-10T05:06:52.388Z,17.46
2022-08-10T05:07:56.680Z,17.50
2022-08-10T05:08:52.218Z,17.55
2022-08-10T05:10:02.393Z,17.62
2022-08-10T05:10:53.223Z,17.67
2022-08-10T05:11:53.258Z,17.74
2022-08-10T05:12:52.159Z,17.83
2022-08-10T05:13:52.271Z,17.88
2022-08-10T05:14:52.183Z,17.89
2022-08-10T05:15:53.227Z,17.90
2022-08-10T05:16:52.131Z,17.92
2022-08-10T05:18:08.669Z,17.97
2022-08-10T05:18:53.081Z,18.02
2022-08-10T05:20:04.403Z,18.06
2022-08-10T05:20:53.079Z,18.11
2022-08-10T05:22:03.622Z,18.16
2022-08-10T05:22:53.042Z,18.21
2022-08-10T05:23:52.148Z,18.23
2022-08-10T05:24:52.007Z,18.25
2022-08-10T05:25:52.182Z,18.27
2022-08-10T05:27:00.568Z,18.30
2022-08-10T05:27:55.509Z,18.30
2022-08-10T05:28:51.940Z,18.26
2022-08-10T05:30:01.045Z,18.26
2022-08-10T05:30:52.919Z,18.24
2022-08-10T05:31:51.982Z,18.23
2022-08-10T05:32:56.188Z,18.23
2022-08-10T05:33:52.878Z,18.22
2022-08-10T05:34:51.980Z,18.23
2022-08-10T05:35:55.231Z,18.25
2022-08-10T05:36:52.844Z,18.27
2022-08-10T05:38:09.518Z,18.30
2022-08-10T05:38:52.811Z,18.32
2022-08-10T05:39:53.094Z,18.33
2022-08-10T05:40:51.783Z,18.29
2022-08-10T05:41:53.023Z,18.26
2022-08-10T05:42:51.750Z,18.24
2022-08-10T05:43:51.952Z,18.22
2022-08-10T05:44:51.723Z,18.21
2022-08-10T05:46:18.132Z,18.21
2022-08-10T05:46:52.821Z,18.19
2022-08-10T05:48:57.175Z,18.17
2022-08-10T05:48:59.423Z,18.16
2022-08-10T05:49:52.665Z,18.17
2022-08-10T05:50:51.773Z,18.20
2022-08-10T05:51:51.639Z,18.21
2022-08-10T05:52:51.703Z,18.21
2022-08-10T05:54:03.257Z,18.23
2022-08-10T05:54:52.620Z,18.24
2022-08-10T05:55:52.628Z,18.24
2022-08-10T05:56:53.346Z,18.25
2022-08-10T05:57:52.663Z,18.26
2022-08-10T05:58:51.545Z,18.27
2022-08-10T06:00:33.148Z,18.30
2022-08-10T06:02:41.136Z,18.00
2022-08-10T06:03:02.938Z,18.00
2022-08-10T06:04:01.826Z,18.25
2022-08-10T06:05:02.011Z,18.39
2022-08-10T06:06:01.795Z,18.48
2022-08-10T06:07:01.888Z,18.54
2022-08-10T06:08:01.779Z,18.60
2022-08-10T06:09:01.926Z,18.64
2022-08-10T06:10:01.746Z,18.67
2022-08-10T06:12:27.802Z,18.71
2022-08-10T06:12:28.533Z,18.68
2022-08-10T06:13:03.092Z,18.75
2022-08-10T06:14:12.946Z,18.78
2022-08-10T06:15:05.896Z,18.81
2022-08-10T06:16:02.691Z,18.86
2022-08-10T06:17:01.769Z,18.88
2022-08-10T06:18:02.012Z,18.92
2022-08-10T06:19:01.717Z,18.96
2022-08-10T06:20:01.622Z,19.00
2022-08-10T06:21:01.733Z,19.03
2022-08-10T06:22:01.784Z,19.07
2022-08-10T06:23:01.667Z,19.10
2022-08-10T06:24:01.558Z,19.12
2022-08-10T06:26:09.588Z,19.19
2022-08-10T06:27:02.537Z,19.22
2022-08-10T06:28:01.599Z,19.25
2022-08-10T06:29:03.107Z,19.28
2022-08-10T06:30:22.616Z,19.31
2022-08-10T06:31:01.469Z,19.34
2022-08-10T06:32:01.578Z,19.37
2022-08-10T06:33:01.457Z,19.42
2022-08-10T06:34:01.511Z,19.46
2022-08-10T06:35:01.416Z,19.48
2022-08-10T06:36:01.550Z,19.50
2022-08-10T06:37:01.380Z,19.54
2022-08-10T06:38:01.479Z,19.57
2022-08-10T06:39:23.004Z,19.61
2022-08-10T06:40:02.392Z,19.67
2022-08-10T06:41:01.491Z,19.75
2022-08-10T06:42:16.460Z,19.83
2022-08-10T06:43:02.307Z,19.89
2022-08-10T06:44:01.359Z,19.94
2022-08-10T06:45:01.291Z,19.98
2022-08-10T06:46:07.542Z,20.01
2022-08-10T06:47:02.266Z,20.04
2022-08-10T06:48:02.389Z,20.08
2022-08-10T06:49:01.220Z,20.11
2022-08-10T06:50:01.717Z,20.15
2022-08-10T06:51:01.220Z,20.21
2022-08-10T06:52:01.228Z,20.28
2022-08-10T06:53:01.172Z,20.39
2022-08-10T06:54:01.270Z,20.50
2022-08-10T06:55:01.145Z,20.58
2022-08-10T06:56:01.142Z,20.66
2022-08-10T06:58:02.263Z,20.79
2022-08-10T06:59:01.082Z,20.86
2022-08-10T07:00:24.309Z,20.92
2022-08-10T07:01:02.149Z,20.96
2022-08-10T07:02:01.109Z,20.98
2022-08-10T07:03:01.090Z,21.00
2022-08-10T07:04:02.021Z,21.02
2022-08-10T07:05:02.125Z,21.05
2022-08-10T07:06:01.012Z,21.08
2022-08-10T07:07:01.042Z,21.11
2022-08-10T07:08:00.975Z,21.15
2022-08-10T07:09:02.095Z,21.15
2022-08-10T07:10:00.939Z,21.16
2022-08-10T07:11:02.042Z,21.15
2022-08-10T07:12:07.572Z,21.14
2022-08-10T07:13:01.904Z,21.16
2022-08-10T07:14:16.176Z,21.21
2022-08-10T07:15:01.895Z,21.24
2022-08-10T07:16:01.054Z,21.26
2022-08-10T07:17:00.877Z,21.28
2022-08-10T07:18:00.894Z,21.29
2022-08-10T07:19:00.825Z,21.31
2022-08-10T07:20:01.023Z,21.31
2022-08-10T07:21:00.816Z,21.28
2022-08-10T07:22:00.883Z,21.28
2022-08-10T07:23:56.059Z,21.29
2022-08-10T07:24:02.128Z,21.30
2022-08-10T07:25:00.744Z,21.29
2022-08-10T07:26:01.755Z,21.30
2022-08-10T07:27:00.815Z,21.34
2022-08-10T07:28:01.820Z,21.39
2022-08-10T07:29:02.826Z,21.47
2022-08-10T07:30:00.682Z,21.55
2022-08-10T07:31:00.887Z,21.64
2022-08-10T07:32:00.685Z,21.72
2022-08-10T07:33:00.712Z,21.79
2022-08-10T07:34:00.615Z,21.82
2022-08-10T07:35:00.750Z,21.85
2022-08-10T07:36:00.605Z,21.88
2022-08-10T07:37:00.677Z,21.92
2022-08-10T07:38:00.815Z,21.96
2022-08-10T07:39:00.648Z,22.03
2022-08-10T07:40:04.392Z,22.10
2022-08-10T07:41:00.538Z,22.16
2022-08-10T07:42:00.557Z,22.23
2022-08-10T07:43:00.507Z,22.28
2022-08-10T07:44:00.617Z,22.34
2022-08-10T07:45:00.479Z,22.36
2022-08-10T07:46:00.590Z,22.38
2022-08-10T07:47:00.460Z,22.40
2022-08-10T07:48:05.121Z,22.40
2022-08-10T07:49:01.447Z,22.40
2022-08-10T07:50:00.508Z,22.41
2022-08-10T07:51:00.407Z,22.41
2022-08-10T07:52:00.419Z,22.42
2022-08-10T07:53:00.383Z,22.47
2022-08-10T07:54:00.429Z,22.52
2022-08-10T07:55:00.369Z,22.57
2022-08-10T07:56:01.485Z,22.61
2022-08-10T07:57:01.318Z,22.65
2022-08-10T07:58:00.358Z,22.69
2022-08-10T07:59:00.289Z,22.73
2022-08-10T08:00:00.396Z,22.79
2022-08-10T08:01:00.292Z,22.86
2022-08-10T08:02:01.442Z,22.93
2022-08-10T08:03:00.232Z,23.00
2022-08-10T08:04:21.379Z,23.06
2022-08-10T08:05:00.240Z,23.12
2022-08-10T08:06:05.356Z,23.15
2022-08-10T08:07:01.200Z,23.18
2022-08-10T08:08:00.234Z,23.18
2022-08-10T08:09:00.201Z,23.20
2022-08-10T08:10:00.904Z,23.23
2022-08-10T08:11:00.696Z,23.25
2022-08-10T08:12:00.225Z,23.28
2022-08-10T08:13:00.124Z,23.30
2022-08-10T08:14:01.199Z,23.31
2022-08-10T08:15:00.078Z,23.32
2022-08-10T08:16:20.611Z,23.33
2022-08-10T08:17:01.052Z,23.34
2022-08-10T08:18:00.690Z,23.34
2022-08-10T08:20:01.002Z,23.32
2022-08-10T08:20:59.988Z,23.32
2022-08-10T08:24:08.726Z,23.30
2022-08-10T08:24:10.166Z,23.31
2022-08-10T08:24:14.653Z,23.31
2022-08-10T08:25:00.934Z,23.32
2022-08-10T08:26:01.014Z,23.32
2022-08-10T08:26:59.925Z,23.33
2022-08-10T08:28:00.023Z,23.35
2022-08-10T08:28:59.881Z,23.37
2022-08-10T08:30:00.894Z,23.38
2022-08-10T08:30:59.885Z,23.40
2022-08-10T08:32:01.749Z,23.38
2022-08-10T08:32:59.903Z,23.38
2022-08-10T08:33:59.816Z,23.38
2022-08-10T08:34:59.953Z,23.38
2022-08-10T08:35:59.784Z,23.39
2022-08-10T08:37:00.073Z,23.40
2022-08-10T08:38:33.280Z,23.42
2022-08-10T08:39:00.749Z,23.42
2022-08-10T08:39:59.762Z,23.41
2022-08-10T08:40:59.758Z,23.40
2022-08-10T08:41:59.717Z,23.40
2022-08-10T08:42:59.766Z,23.41
2022-08-10T08:43:59.676Z,23.44
2022-08-10T08:44:59.878Z,23.44
2022-08-10T08:46:01.618Z,23.41
2022-08-10T08:46:59.716Z,23.39
2022-08-10T08:48:04.325Z,23.39
2022-08-10T08:49:00.606Z,23.41
2022-08-10T08:50:07.755Z,23.42
2022-08-10T08:51:01.716Z,23.44
2022-08-10T08:52:09.871Z,23.44
2022-08-10T08:53:00.664Z,23.44
2022-08-10T08:54:01.817Z,23.46
2022-08-10T08:54:59.527Z,23.49
2022-08-10T08:56:05.480Z,23.53
2022-08-10T08:57:00.539Z,23.56
2022-08-10T08:57:59.680Z,23.59
2022-08-10T08:58:59.478Z,23.61
2022-08-10T08:59:59.626Z,23.63
2022-08-10T09:00:59.457Z,23.64
2022-08-10T09:01:59.542Z,23.67
2022-08-10T09:02:59.450Z,23.72
2022-08-10T09:04:00.488Z,23.76
2022-08-10T09:04:59.383Z,23.79
2022-08-10T09:06:00.612Z,23.82
2022-08-10T09:06:59.370Z,23.83
2022-08-10T09:08:02.791Z,23.84
2022-08-10T09:08:59.361Z,23.85
2022-08-10T09:09:59.354Z,23.86
2022-08-10T09:10:59.322Z,23.85
2022-08-10T09:11:59.370Z,23.84
2022-08-10T09:12:59.280Z,23.83
2022-08-10T09:13:59.330Z,23.82
2022-08-10T09:14:59.262Z,23.83
2022-08-10T09:16:00.897Z,23.83
2022-08-10T09:16:59.234Z,23.84
2022-08-10T09:17:59.302Z,23.86
2022-08-10T09:18:59.208Z,23.90
2022-08-10T09:19:59.273Z,23.94
2022-08-10T09:20:59.207Z,23.96
2022-08-10T09:22:17.346Z,23.98
2022-08-10T09:23:00.200Z,24.00
2022-08-10T09:24:05.207Z,24.01
2022-08-10T09:25:00.243Z,24.03
2022-08-10T09:26:00.280Z,24.05
2022-08-10T09:26:59.110Z,24.07
2022-08-10T09:27:59.173Z,24.11
2022-08-10T09:29:11.906Z,24.13
2022-08-10T09:30:00.082Z,24.15
2022-08-10T09:31:21.045Z,24.17
2022-08-10T09:36:15.445Z,24.18
2022-08-10T09:36:16.776Z,24.20
2022-08-10T09:36:19.403Z,24.22
2022-08-10T09:36:21.259Z,24.22
2022-08-10T09:36:25.146Z,24.22
2022-08-10T09:36:59.974Z,24.23
2022-08-10T09:38:01.899Z,24.26
2022-08-10T09:38:58.945Z,24.28
2022-08-10T09:40:06.719Z,24.30
2022-08-10T09:41:04.953Z,24.31
2022-08-10T09:41:59.925Z,24.32
2022-08-10T09:43:23.484Z,24.32
2022-08-10T09:44:02.087Z,24.33
2022-08-10T09:44:58.899Z,24.32
2022-08-10T09:45:58.895Z,24.34
2022-08-10T09:46:58.840Z,24.34
2022-08-10T09:48:02.042Z,24.35
2022-08-10T09:48:58.837Z,24.38
2022-08-10T09:50:04.439Z,24.43
2022-08-10T09:51:41.649Z,24.46
2022-08-10T09:51:59.787Z,24.50
2022-08-10T09:52:59.406Z,24.52
2022-08-10T09:53:58.897Z,24.53
2022-08-10T09:54:58.735Z,24.55
2022-08-10T09:56:18.605Z,24.55
2022-08-10T09:57:17.899Z,24.55
2022-08-10T09:58:00.892Z,24.57
2022-08-10T09:59:27.069Z,24.57
2022-08-10T10:00:02.301Z,24.55
2022-08-10T10:00:58.649Z,24.51
2022-08-10T10:02:03.457Z,24.49
2022-08-10T10:02:58.722Z,24.47
2022-08-10T10:03:58.723Z,24.47
2022-08-10T10:04:58.602Z,24.47
2022-08-10T10:05:58.691Z,24.48
2022-08-10T10:06:58.572Z,24.51
2022-08-10T10:07:58.649Z,24.53
2022-08-10T10:09:10.213Z,24.55
2022-08-10T10:09:59.533Z,24.56
2022-08-10T10:10:58.590Z,24.59
2022-08-10T10:11:58.521Z,24.62
2022-08-10T10:12:59.496Z,24.63
2022-08-10T10:14:03.777Z,24.63
2022-08-10T10:14:59.471Z,24.66
2022-08-10T10:15:58.500Z,24.71
2022-08-10T10:16:58.461Z,24.74
2022-08-10T10:17:58.513Z,24.76
2022-08-10T10:18:58.411Z,24.79
2022-08-10T10:19:58.428Z,24.82
2022-08-10T10:20:58.392Z,24.84
2022-08-10T10:21:58.440Z,24.87
2022-08-10T10:22:58.382Z,24.90
2022-08-10T10:24:22.375Z,24.93
2022-08-10T10:24:59.460Z,24.95
2022-08-10T10:26:03.589Z,24.96
2022-08-10T10:26:59.318Z,24.99
2022-08-10T10:27:58.435Z,25.01
2022-08-10T10:29:24.728Z,25.02
2022-08-10T10:29:59.699Z,25.03
2022-08-10T10:30:58.251Z,25.04
2022-08-10T10:31:58.412Z,25.06
2022-08-10T10:32:59.487Z,25.09
2022-08-10T10:33:58.294Z,25.13
2022-08-10T10:34:58.201Z,25.15
2022-08-10T10:35:58.236Z,25.17
2022-08-10T10:36:58.173Z,25.20
2022-08-10T10:38:01.275Z,25.20
2022-08-10T10:38:58.145Z,25.23
2022-08-10T10:39:58.343Z,25.27
2022-08-10T10:40:58.138Z,25.30
2022-08-10T10:42:04.564Z,25.33
2022-08-10T10:42:59.095Z,25.35
2022-08-10T10:43:59.112Z,25.36
2022-08-10T10:44:58.086Z,25.36
2022-08-10T10:45:58.106Z,25.37
2022-08-10T10:46:58.037Z,25.37
2022-08-10T10:48:29.071Z,25.38
2022-08-10T10:48:59.006Z,25.40
2022-08-10T10:49:58.035Z,25.42
2022-08-10T10:50:58.006Z,25.44
2022-08-10T10:52:01.854Z,25.47
2022-08-10T10:52:57.958Z,25.52
2022-08-10T10:53:57.997Z,25.56
2022-08-10T10:54:57.929Z,25.60
2022-08-10T10:56:14.137Z,25.63
2022-08-10T10:56:58.930Z,25.64
2022-08-10T10:58:00.093Z,25.67
2022-08-10T10:58:57.877Z,25.71
2022-08-10T10:59:58.008Z,25.77
2022-08-10T11:00:57.898Z,25.84
2022-08-10T11:01:57.998Z,25.93
2022-08-10T11:02:57.834Z,25.99
2022-08-10T11:03:57.979Z,26.01
2022-08-10T11:04:57.809Z,26.00
2022-08-10T11:05:58.868Z,25.99
2022-08-10T11:06:57.769Z,25.98
2022-08-10T11:07:57.898Z,26.01
2022-08-10T11:08:57.763Z,26.06
2022-08-10T11:10:05.157Z,26.09
2022-08-10T11:10:58.739Z,26.13
2022-08-10T11:12:02.903Z,26.16
2022-08-10T11:13:03.029Z,26.15
2022-08-10T11:14:25.467Z,26.14
2022-08-10T11:14:58.725Z,26.13
2022-08-10T11:15:57.652Z,26.15
2022-08-10T11:17:00.269Z,26.20
2022-08-10T11:17:57.632Z,26.24
2022-08-10T11:18:57.681Z,26.25
2022-08-10T11:20:01.226Z,26.25
2022-08-10T11:20:58.590Z,26.23
2022-08-10T11:21:57.692Z,26.22
2022-08-10T11:22:57.562Z,26.20
2022-08-10T11:24:48.498Z,26.18
2022-08-10T11:24:58.594Z,26.15
2022-08-10T11:25:57.795Z,26.12
2022-08-10T11:26:57.589Z,26.08
2022-08-10T11:27:57.492Z,26.07
2022-08-10T11:28:57.564Z,26.08
2022-08-10T11:29:57.473Z,26.09
2022-08-10T11:30:57.653Z,26.10
2022-08-10T11:31:57.443Z,26.12
2022-08-10T11:32:57.534Z,26.13
2022-08-10T11:34:46.448Z,26.12
2022-08-10T11:35:10.394Z,26.11
2022-08-10T11:35:58.406Z,26.13
2022-08-10T11:36:57.487Z,26.14
2022-08-10T11:38:29.787Z,26.16
2022-08-10T11:39:13.970Z,26.19
2022-08-10T11:39:59.465Z,26.26
2022-08-10T11:40:57.324Z,26.36
2022-08-10T11:42:10.195Z,26.48
2022-08-10T11:42:58.298Z,26.64
2022-08-10T11:43:57.387Z,26.78
2022-08-10T11:44:57.268Z,26.87
2022-08-10T11:46:02.936Z,26.94
2022-08-10T11:46:58.266Z,27.07
2022-08-10T11:47:57.349Z,27.15
2022-08-10T11:49:02.135Z,27.23
2022-08-10T11:49:58.205Z,27.29
2022-08-10T11:50:57.357Z,27.31
2022-08-10T11:51:57.177Z,27.28
2022-08-10T11:52:57.238Z,27.22
2022-08-10T11:53:57.159Z,27.24
2022-08-10T11:54:57.177Z,27.28
2022-08-10T11:55:57.119Z,27.34
2022-08-10T11:57:01.970Z,27.41
2022-08-10T11:57:58.117Z,27.50
2022-08-10T11:58:57.481Z,27.62
2022-08-10T11:59:58.357Z,27.73
2022-08-10T12:00:57.128Z,27.82
2022-08-10T12:01:57.059Z,27.90
2022-08-10T12:02:57.213Z,27.94
2022-08-10T12:03:57.038Z,27.99
2022-08-10T12:04:57.113Z,28.00
2022-08-10T12:05:56.996Z,28.01
2022-08-10T12:06:57.158Z,28.04
2022-08-10T12:10:01.751Z,28.12
2022-08-10T12:10:09.738Z,28.26
2022-08-10T12:10:10.025Z,28.20
2022-08-10T12:10:57.924Z,28.30
2022-08-10T12:11:57.073Z,28.38
2022-08-10T12:12:56.901Z,28.48
2022-08-10T12:14:19.786Z,28.57
2022-08-10T12:14:57.871Z,28.60
2022-08-10T12:15:56.944Z,28.56
2022-08-10T12:16:56.847Z,28.46
2022-08-10T12:17:56.983Z,28.31
2022-08-10T12:18:56.815Z,28.19
2022-08-10T12:20:01.959Z,28.06
2022-08-10T12:20:57.794Z,28.00
2022-08-10T12:22:17.924Z,28.00
2022-08-10T12:22:56.803Z,28.04
2022-08-10T12:24:03.043Z,28.11
2022-08-10T12:24:57.771Z,28.20
2022-08-10T12:25:58.593Z,28.27
2022-08-10T12:26:56.714Z,28.30
2022-08-10T12:27:56.855Z,28.28
2022-08-10T12:28:56.744Z,28.22
2022-08-10T12:29:56.791Z,28.18
2022-08-10T12:30:56.685Z,28.13
2022-08-10T12:31:56.837Z,28.08
2022-08-10T12:32:56.625Z,28.08
2022-08-10T12:34:02.155Z,28.15
2022-08-10T12:34:57.700Z,28.25
2022-08-10T12:36:17.463Z,28.32
2022-08-10T12:36:57.771Z,28.38
2022-08-10T12:37:56.798Z,28.42
2022-08-10T12:38:56.557Z,28.42
2022-08-10T12:40:12.018Z,28.40
2022-08-10T12:40:57.532Z,28.36
2022-08-10T12:41:56.598Z,28.29
2022-08-10T12:43:13.122Z,28.26
2022-08-10T12:44:05.021Z,28.27
2022-08-10T12:44:57.471Z,28.42
2022-08-10T12:46:01.821Z,28.59
2022-08-10T12:46:57.449Z,28.72
2022-08-10T12:47:56.609Z,28.81
2022-08-10T12:48:56.450Z,28.89
2022-08-10T12:50:29.580Z,28.96
2022-08-10T12:50:57.539Z,29.00
2022-08-10T12:51:56.387Z,28.99
2022-08-10T12:52:56.550Z,28.95
2022-08-10T12:53:56.361Z,28.91
2022-08-10T12:54:56.571Z,28.88
2022-08-10T12:55:56.383Z,28.85
2022-08-10T12:57:18.411Z,28.83
2022-08-10T12:57:56.329Z,28.83